Terminal Aerodrome Forecast
Issued by NWS

Home | Current Version | Previous Version | Text Only | Print | Product List | Glossary On
Versions: 1 2 3 4 5 6 7 8 9 10 11 12 13 14 15 16 17 18 19 20 21
000
FTUS43 KDDC 271136
TAFGCK
TAF
KGCK 271136Z 2712/2812 31008KT P6SM OVC009
     FM271600 30009KT P6SM SCT110
     FM272000 32010KT P6SM VCTS BKN200CB
     FM280300 32011KT P6SM SCT250=

USA.gov is the U.S. government's official web portal to all federal, state and local government web resources and services.